Wind From: 11-12-2017 04:25 Until: 16:00 warning for: Wind Level: Orange info button

Power and phone distribution networks may be disrupted for relatively long periods., Roofs and chimneys can be damaged. , Tree branches may break. , Vehicles can be deported. , Traffic may be disrupted, particularly on secondary roads in forest areas. Limit your trips. , Limit your speed in highway driving, especially if you drive a vehicle or hitch sensitive to wind. , Do not go for walks in forests or along the coast., In town, be vigilant against possible falling objects., Do not work on roofs and do not touch any electrical line fallen on the ground., Store or secure sensitive objects to wind or likely to be damaged., Always install power generators outside buildings. 


Meteo18 Weather Cam more information Meteo18 Weather Cam


Thunder radar more information blitzortung!


Rain radar more information rain snow radar


Visit our other weather sites:

Template documentation
and downloads

And another site



Weather Underground History page Text

Daily Summary for August 16, 2017 Units:  Both    English   Metric
« Previous Day
Next Day »
Daily Weekly Monthly Yearly Custom
  High: Low: Average:
Temperature: 78.6 °F /  25.9 °C 60.3 °F /  15.7 °C 69.3 °F /  20.7 °C
Dew Point: 65.5 °F /  18.6 °C 55.9 °F /  13.3 °C 62.1 °F /  16.7 °C
Humidity: 97 % 54 % 79 %
Wind Speed: 7 mph /  11.3 km/h - 1.6 mph /  2.6 km/h
Wind Gust: 12 mph /  19.3 km/h - -
Wind:- - WSW
Pressure: 30.2 in /  1022.2 hPa 30.1 in /  1020.5 hPa -
Precipitation: 0.01 in /  0.3 mm    
Historical Graphs
 
 
Tabular Data for August 16, 2017
Time Temperature Dew Point Pressure Wind Wind Speed Wind Gust Humidity Rainfall Rate (Hourly)
00:02 68.5 °F /  20.3 °C 65.5 °F /  18.6 °C 30.2 in /  1021.2 hPa SSW 3 mph /  4.8 km/h 8 mph /  12.9 km/h 90 % 0 in /  0.0 mm
00:07 68.5 °F /  20.3 °C 65.5 °F /  18.6 °C 30.2 in /  1021.2 hPa SW 3 mph /  4.8 km/h 8 mph /  12.9 km/h 90 % 0 in /  0.0 mm
00:12 68.5 °F /  20.3 °C 65.5 °F /  18.6 °C 30.2 in /  1021.2 hPa West 4 mph /  6.4 km/h 8 mph /  12.9 km/h 90 % 0 in /  0.0 mm
00:17 68.5 °F /  20.3 °C 65.5 °F /  18.6 °C 30.2 in /  1021.2 hPa SW 4 mph /  6.4 km/h 8 mph /  12.9 km/h 90 % 0 in /  0.0 mm
00:22 68.5 °F /  20.3 °C 65.5 °F /  18.6 °C 30.2 in /  1021.2 hPa WSW 3 mph /  4.8 km/h 8 mph /  12.9 km/h 90 % 0 in /  0.0 mm
00:32 68.4 °F /  20.2 °C 65.3 °F /  18.5 °C 30.2 in /  1021.2 hPa WSW 2 mph /  3.2 km/h 7 mph /  11.3 km/h 90 % 0 in /  0.0 mm
00:37 68.4 °F /  20.2 °C 65.3 °F /  18.5 °C 30.2 in /  1021.2 hPa SW 2 mph /  3.2 km/h 7 mph /  11.3 km/h 90 % 0 in /  0.0 mm
00:42 68.2 °F /  20.1 °C 65.5 °F /  18.6 °C 30.2 in /  1021.2 hPa WSW 6 mph /  9.7 km/h 7 mph /  11.3 km/h 91 % 0 in /  0.0 mm
00:52 68 °F /  20.0 °C 65.3 °F /  18.5 °C 30.2 in /  1021.2 hPa WSW 4 mph /  6.4 km/h 7 mph /  11.3 km/h 91 % 0 in /  0.0 mm
00:57 67.8 °F /  19.9 °C 65.1 °F /  18.4 °C 30.2 in /  1021.2 hPa West 2 mph /  3.2 km/h 7 mph /  11.3 km/h 91 % 0 in /  0.0 mm
01:02 67.6 °F /  19.8 °C 64.9 °F /  18.3 °C 30.2 in /  1021.2 hPa WSW 2 mph /  3.2 km/h 7 mph /  11.3 km/h 91 % 0 in /  0.0 mm
01:12 67.5 °F /  19.7 °C 65.1 °F /  18.4 °C 30.2 in /  1021.2 hPa West 1 mph /  1.6 km/h 7 mph /  11.3 km/h 92 % 0 in /  0.0 mm
01:17 67.3 °F /  19.6 °C 64.9 °F /  18.3 °C 30.2 in /  1021.2 hPa WNW 2 mph /  3.2 km/h 6 mph /  9.7 km/h 92 % 0 in /  0.0 mm
01:22 67.3 °F /  19.6 °C 64.9 °F /  18.3 °C 30.2 in /  1021.2 hPa WNW 1 mph /  1.6 km/h 4 mph /  6.4 km/h 92 % 0 in /  0.0 mm
01:27 67.1 °F /  19.5 °C 64.8 °F /  18.2 °C 30.2 in /  1021.2 hPa West 3 mph /  4.8 km/h 4 mph /  6.4 km/h 92 % 0 in /  0.0 mm
01:32 67.1 °F /  19.5 °C 64.8 °F /  18.2 °C 30.2 in /  1021.2 hPa WNW 4 mph /  6.4 km/h 5 mph /  8.0 km/h 92 % 0 in /  0.0 mm
01:42 67.3 °F /  19.6 °C 64.9 °F /  18.3 °C 30.2 in /  1021.2 hPa West 4 mph /  6.4 km/h 6 mph /  9.7 km/h 92 % 0 in /  0.0 mm
01:47 67.3 °F /  19.6 °C 64.9 °F /  18.3 °C 30.2 in /  1021.2 hPa West 4 mph /  6.4 km/h 7 mph /  11.3 km/h 92 % 0 in /  0.0 mm
01:57 67.1 °F /  19.5 °C 64.8 °F /  18.2 °C 30.2 in /  1021.2 hPa WNW 1 mph /  1.6 km/h 8 mph /  12.9 km/h 92 % 0 in /  0.0 mm
02:02 66.9 °F /  19.4 °C 64.6 °F /  18.1 °C 30.2 in /  1021.2 hPa WSW 1 mph /  1.6 km/h 6 mph /  9.7 km/h 92 % 0 in /  0.0 mm
02:07 66.7 °F /  19.3 °C 64.4 °F /  18.0 °C 30.2 in /  1021.2 hPa West 2 mph /  3.2 km/h 5 mph /  8.0 km/h 92 % 0 in /  0.0 mm
02:12 66.7 °F /  19.3 °C 64.4 °F /  18.0 °C 30.2 in /  1021.2 hPa WSW 2 mph /  3.2 km/h 3 mph /  4.8 km/h 92 % 0 in /  0.0 mm
02:17 66.6 °F /  19.2 °C 64.2 °F /  17.9 °C 30.2 in /  1020.9 hPa West 2 mph /  3.2 km/h 4 mph /  6.4 km/h 92 % 0 in /  0.0 mm
02:22 66.6 °F /  19.2 °C 64.2 °F /  17.9 °C 30.2 in /  1020.9 hPa WSW 2 mph /  3.2 km/h 4 mph /  6.4 km/h 92 % 0 in /  0.0 mm
02:32 66.2 °F /  19.0 °C 63.9 °F /  17.7 °C 30.2 in /  1020.9 hPa West 1 mph /  1.6 km/h 5 mph /  8.0 km/h 92 % 0 in /  0.0 mm
02:42 66 °F /  18.9 °C 63.9 °F /  17.7 °C 30.2 in /  1020.9 hPa WSW 1 mph /  1.6 km/h 5 mph /  8.0 km/h 93 % 0 in /  0.0 mm
02:47 65.8 °F /  18.8 °C 63.7 °F /  17.6 °C 30.2 in /  1020.9 hPa Calm   4 mph /  6.4 km/h 93 % 0 in /  0.0 mm
02:52 65.8 °F /  18.8 °C 63.7 °F /  17.6 °C 30.2 in /  1020.9 hPa West 2 mph /  3.2 km/h 4 mph /  6.4 km/h 93 % 0 in /  0.0 mm
02:57 65.8 °F /  18.8 °C 63.7 °F /  17.6 °C 30.2 in /  1020.9 hPa NW 1 mph /  1.6 km/h 4 mph /  6.4 km/h 93 % 0 in /  0.0 mm
03:02 65.7 °F /  18.7 °C 63.5 °F /  17.5 °C 30.2 in /  1020.9 hPa Calm   4 mph /  6.4 km/h 93 % 0 in /  0.0 mm
03:12 65.5 °F /  18.6 °C 63.3 °F /  17.4 °C 30.2 in /  1020.9 hPa SW 2 mph /  3.2 km/h 2 mph /  3.2 km/h 93 % 0 in /  0.0 mm
03:17 65.1 °F /  18.4 °C 63 °F /  17.2 °C 30.2 in /  1020.9 hPa WSW 1 mph /  1.6 km/h 2 mph /  3.2 km/h 93 % 0 in /  0.0 mm
03:22 65.1 °F /  18.4 °C 63 °F /  17.2 °C 30.2 in /  1020.9 hPa Calm   2 mph /  3.2 km/h 93 % 0 in /  0.0 mm
03:27 64.8 °F /  18.2 °C 62.6 °F /  17.0 °C 30.2 in /  1020.9 hPa Calm   2 mph /  3.2 km/h 93 % 0 in /  0.0 mm
03:32 64 °F /  17.8 °C 62.1 °F /  16.7 °C 30.2 in /  1020.9 hPa Calm   2 mph /  3.2 km/h 93 % 0 in /  0.0 mm
03:37 63.9 °F /  17.7 °C 61.9 °F /  16.6 °C 30.2 in /  1021.2 hPa Calm   2 mph /  3.2 km/h 93 % 0 in /  0.0 mm
03:42 63.7 °F /  17.6 °C 61.9 °F /  16.6 °C 30.2 in /  1021.2 hPa SSW 2 mph /  3.2 km/h 2 mph /  3.2 km/h 94 % 0 in /  0.0 mm
03:47 63.7 °F /  17.6 °C 62.2 °F /  16.8 °C 30.2 in /  1021.2 hPa SW 3 mph /  4.8 km/h 3 mph /  4.8 km/h 95 % 0 in /  0.0 mm
03:52 63.3 °F /  17.4 °C 61.5 °F /  16.4 °C 30.2 in /  1021.2 hPa SW 2 mph /  3.2 km/h 4 mph /  6.4 km/h 94 % 0 in /  0.0 mm
03:57 63.3 °F /  17.4 °C 61.9 °F /  16.6 °C 30.2 in /  1021.2 hPa SSW 2 mph /  3.2 km/h 4 mph /  6.4 km/h 95 % 0 in /  0.0 mm
04:02 63.3 °F /  17.4 °C 61.9 °F /  16.6 °C 30.2 in /  1021.2 hPa Calm   4 mph /  6.4 km/h 95 % 0 in /  0.0 mm
04:07 63.7 °F /  17.6 °C 62.6 °F /  17.0 °C 30.2 in /  1021.2 hPa West 1 mph /  1.6 km/h 4 mph /  6.4 km/h 96 % 0 in /  0.0 mm
04:12 63.7 °F /  17.6 °C 62.2 °F /  16.8 °C 30.2 in /  1021.2 hPa Calm   4 mph /  6.4 km/h 95 % 0 in /  0.0 mm
04:17 63.7 °F /  17.6 °C 62.2 °F /  16.8 °C 30.2 in /  1021.2 hPa SW 1 mph /  1.6 km/h 4 mph /  6.4 km/h 95 % 0 in /  0.0 mm
04:22 63.7 °F /  17.6 °C 62.2 °F /  16.8 °C 30.2 in /  1021.2 hPa Calm   4 mph /  6.4 km/h 95 % 0 in /  0.0 mm
04:27 63.3 °F /  17.4 °C 61.9 °F /  16.6 °C 30.2 in /  1021.2 hPa Calm   4 mph /  6.4 km/h 95 % 0 in /  0.0 mm
04:32 63.1 °F /  17.3 °C 61.7 °F /  16.5 °C 30.2 in /  1021.2 hPa Calm   3 mph /  4.8 km/h 95 % 0 in /  0.0 mm
04:37 62.8 °F /  17.1 °C 61.3 °F /  16.3 °C 30.2 in /  1021.2 hPa Calm   1 mph /  1.6 km/h 95 % 0 in /  0.0 mm
04:42 62.4 °F /  16.9 °C 61 °F /  16.1 °C 30.2 in /  1021.2 hPa SSW 2 mph /  3.2 km/h   95 % 0 in /  0.0 mm
04:47 62.8 °F /  17.1 °C 61.7 °F /  16.5 °C 30.2 in /  1021.2 hPa SW 1 mph /  1.6 km/h 3 mph /  4.8 km/h 96 % 0 in /  0.0 mm
04:52 62.8 °F /  17.1 °C 61.7 °F /  16.5 °C 30.2 in /  1021.2 hPa Calm   3 mph /  4.8 km/h 96 % 0 in /  0.0 mm
04:57 62.8 °F /  17.1 °C 61.7 °F /  16.5 °C 30.2 in /  1021.2 hPa Calm   3 mph /  4.8 km/h 96 % 0 in /  0.0 mm
05:02 62.2 °F /  16.8 °C 60.8 °F /  16.0 °C 30.2 in /  1021.2 hPa Calm   3 mph /  4.8 km/h 95 % 0 in /  0.0 mm
05:17 62.1 °F /  16.7 °C 61 °F /  16.1 °C 30.2 in /  1021.2 hPa Calm   1 mph /  1.6 km/h 96 % 0 in /  0.0 mm
05:22 62.2 °F /  16.8 °C 61.3 °F /  16.3 °C 30.2 in /  1021.2 hPa Calm   1 mph /  1.6 km/h 97 % 0 in /  0.0 mm
05:32 61.9 °F /  16.6 °C 60.8 °F /  16.0 °C 30.2 in /  1021.2 hPa SW 1 mph /  1.6 km/h 1 mph /  1.6 km/h 96 % 0 in /  0.0 mm
05:42 62.2 °F /  16.8 °C 61.2 °F /  16.2 °C 30.2 in /  1021.2 hPa Calm   1 mph /  1.6 km/h 96 % 0 in /  0.0 mm
05:47 62.2 °F /  16.8 °C 61.2 °F /  16.2 °C 30.2 in /  1021.2 hPa Calm   3 mph /  4.8 km/h 96 % 0 in /  0.0 mm
05:52 62.1 °F /  16.7 °C 61 °F /  16.1 °C 30.2 in /  1021.2 hPa Calm   3 mph /  4.8 km/h 96 % 0 in /  0.0 mm
05:57 61.5 °F /  16.4 °C 60.4 °F /  15.8 °C 30.2 in /  1021.2 hPa Calm   2 mph /  3.2 km/h 96 % 0 in /  0.0 mm
06:02 61.2 °F /  16.2 °C 60.1 °F /  15.6 °C 30.2 in /  1021.2 hPa Calm     96 % 0 in /  0.0 mm
06:12 61.2 °F /  16.2 °C 60.1 °F /  15.6 °C 30.2 in /  1021.2 hPa Calm     96 % 0 in /  0.0 mm
06:17 61 °F /  16.1 °C 59.9 °F /  15.5 °C 30.2 in /  1021.2 hPa Calm     96 % 0 in /  0.0 mm
06:22 61 °F /  16.1 °C 59.9 °F /  15.5 °C 30.2 in /  1021.6 hPa Calm     96 % 0 in /  0.0 mm
06:27 60.6 °F /  15.9 °C 59.5 °F /  15.3 °C 30.2 in /  1021.6 hPa Calm     96 % 0 in /  0.0 mm
06:32 60.4 °F /  15.8 °C 59.4 °F /  15.2 °C 30.2 in /  1021.6 hPa Calm     96 % 0 in /  0.0 mm
06:42 60.4 °F /  15.8 °C 59.4 °F /  15.2 °C 30.2 in /  1021.6 hPa Calm   1 mph /  1.6 km/h 96 % 0 in /  0.0 mm
06:52 60.4 °F /  15.8 °C 59.4 °F /  15.2 °C 30.2 in /  1021.6 hPa Calm   1 mph /  1.6 km/h 96 % 0 in /  0.0 mm
06:57 60.3 °F /  15.7 °C 59.2 °F /  15.1 °C 30.2 in /  1021.6 hPa Calm     96 % 0.01 in /  0.3 mm
07:02 60.3 °F /  15.7 °C 59.2 °F /  15.1 °C 30.2 in /  1021.6 hPa Calm     96 % 0.01 in /  0.3 mm
07:12 60.3 °F /  15.7 °C 59.4 °F /  15.2 °C 30.2 in /  1021.6 hPa Calm     97 % 0.01 in /  0.3 mm
07:17 60.3 °F /  15.7 °C 59.4 °F /  15.2 °C 30.2 in /  1021.6 hPa Calm     97 % 0.01 in /  0.3 mm
07:22 60.4 °F /  15.8 °C 59.5 °F /  15.3 °C 30.2 in /  1021.9 hPa Calm     97 % 0.01 in /  0.3 mm
07:27 60.6 °F /  15.9 °C 59.7 °F /  15.4 °C 30.2 in /  1021.6 hPa Calm     97 % 0.01 in /  0.3 mm
07:32 60.8 °F /  16.0 °C 59.9 °F /  15.5 °C 30.2 in /  1021.6 hPa Calm     97 % 0.01 in /  0.3 mm
07:42 61.2 °F /  16.2 °C 60.3 °F /  15.7 °C 30.2 in /  1021.9 hPa Calm     97 % 0.01 in /  0.3 mm
07:47 61.5 °F /  16.4 °C 60.6 °F /  15.9 °C 30.2 in /  1021.9 hPa Calm     97 % 0.01 in /  0.3 mm
07:52 62.1 °F /  16.7 °C 61.2 °F /  16.2 °C 30.2 in /  1021.9 hPa Calm     97 % 0 in /  0.0 mm
08:02 62.8 °F /  17.1 °C 61.9 °F /  16.6 °C 30.2 in /  1021.9 hPa Calm     97 % 0 in /  0.0 mm
08:12 63.5 °F /  17.5 °C 62.6 °F /  17.0 °C 30.2 in /  1021.9 hPa Calm     97 % 0 in /  0.0 mm
08:17 64 °F /  17.8 °C 63.1 °F /  17.3 °C 30.2 in /  1021.9 hPa Calm     97 % 0 in /  0.0 mm
08:22 63.7 °F /  17.6 °C 62.6 °F /  17.0 °C 30.2 in /  1021.9 hPa Calm     96 % 0 in /  0.0 mm
08:27 63.7 °F /  17.6 °C 62.6 °F /  17.0 °C 30.2 in /  1021.9 hPa Calm     96 % 0 in /  0.0 mm
08:32 63.7 °F /  17.6 °C 62.6 °F /  17.0 °C 30.2 in /  1021.9 hPa NE 1 mph /  1.6 km/h   96 % 0 in /  0.0 mm
08:42 63.3 °F /  17.4 °C 62.2 °F /  16.8 °C 30.2 in /  1021.9 hPa ENE 1 mph /  1.6 km/h 2 mph /  3.2 km/h 96 % 0 in /  0.0 mm
08:52 63.3 °F /  17.4 °C 62.2 °F /  16.8 °C 30.2 in /  1021.9 hPa Calm   3 mph /  4.8 km/h 96 % 0 in /  0.0 mm
09:02 63.7 °F /  17.6 °C 62.6 °F /  17.0 °C 30.2 in /  1021.9 hPa NNE 1 mph /  1.6 km/h 2 mph /  3.2 km/h 96 % 0 in /  0.0 mm
09:12 63.7 °F /  17.6 °C 62.6 °F /  17.0 °C 30.2 in /  1021.9 hPa Calm   1 mph /  1.6 km/h 96 % 0 in /  0.0 mm
09:17 63.9 °F /  17.7 °C 62.4 °F /  16.9 °C 30.2 in /  1021.9 hPa Calm   2 mph /  3.2 km/h 95 % 0 in /  0.0 mm
09:22 64 °F /  17.8 °C 62.6 °F /  17.0 °C 30.2 in /  1021.9 hPa ENE 2 mph /  3.2 km/h 2 mph /  3.2 km/h 95 % 0 in /  0.0 mm
09:27 64.2 °F /  17.9 °C 62.8 °F /  17.1 °C 30.2 in /  1021.9 hPa East 2 mph /  3.2 km/h 3 mph /  4.8 km/h 95 % 0 in /  0.0 mm
09:32 64.2 °F /  17.9 °C 62.8 °F /  17.1 °C 30.2 in /  1021.9 hPa ENE 2 mph /  3.2 km/h 3 mph /  4.8 km/h 95 % 0 in /  0.0 mm
09:42 64.4 °F /  18.0 °C 63 °F /  17.2 °C 30.2 in /  1021.9 hPa NE 2 mph /  3.2 km/h 4 mph /  6.4 km/h 95 % 0 in /  0.0 mm
09:52 64.6 °F /  18.1 °C 63.1 °F /  17.3 °C 30.2 in /  1021.6 hPa NNE 2 mph /  3.2 km/h 4 mph /  6.4 km/h 95 % 0 in /  0.0 mm
09:57 64.6 °F /  18.1 °C 63.1 °F /  17.3 °C 30.2 in /  1021.9 hPa NE 3 mph /  4.8 km/h 4 mph /  6.4 km/h 95 % 0 in /  0.0 mm
10:02 64.6 °F /  18.1 °C 63.1 °F /  17.3 °C 30.2 in /  1021.9 hPa NE 3 mph /  4.8 km/h 4 mph /  6.4 km/h 95 % 0 in /  0.0 mm
10:12 64.9 °F /  18.3 °C 63.1 °F /  17.3 °C 30.2 in /  1021.9 hPa Calm   4 mph /  6.4 km/h 94 % 0 in /  0.0 mm
10:17 65.1 °F /  18.4 °C 63.3 °F /  17.4 °C 30.2 in /  1021.9 hPa Calm   4 mph /  6.4 km/h 94 % 0 in /  0.0 mm
10:22 65.1 °F /  18.4 °C 63.3 °F /  17.4 °C 30.2 in /  1021.9 hPa East 1 mph /  1.6 km/h 3 mph /  4.8 km/h 94 % 0 in /  0.0 mm
10:32 65.8 °F /  18.8 °C 64 °F /  17.8 °C 30.2 in /  1021.9 hPa Calm   1 mph /  1.6 km/h 94 % 0 in /  0.0 mm
10:37 66.2 °F /  19.0 °C 64 °F /  17.8 °C 30.2 in /  1022.2 hPa Calm   1 mph /  1.6 km/h 93 % 0 in /  0.0 mm
10:42 66.4 °F /  19.1 °C 64.2 °F /  17.9 °C 30.2 in /  1022.2 hPa Calm   1 mph /  1.6 km/h 93 % 0 in /  0.0 mm
10:47 66.7 °F /  19.3 °C 64.4 °F /  18.0 °C 30.2 in /  1022.2 hPa Calm   1 mph /  1.6 km/h 92 % 0 in /  0.0 mm
10:52 66.9 °F /  19.4 °C 64.2 °F /  17.9 °C 30.2 in /  1022.2 hPa Calm   1 mph /  1.6 km/h 91 % 0 in /  0.0 mm
10:57 66.9 °F /  19.4 °C 64.2 °F /  17.9 °C 30.2 in /  1022.2 hPa Calm   1 mph /  1.6 km/h 91 % 0 in /  0.0 mm
11:02 67.1 °F /  19.5 °C 64.4 °F /  18.0 °C 30.2 in /  1022.2 hPa Calm   2 mph /  3.2 km/h 91 % 0 in /  0.0 mm
11:12 67.8 °F /  19.9 °C 64.8 °F /  18.2 °C 30.2 in /  1022.2 hPa Calm   2 mph /  3.2 km/h 90 % 0 in /  0.0 mm
11:17 67.8 °F /  19.9 °C 64.2 °F /  17.9 °C 30.2 in /  1022.2 hPa Calm   1 mph /  1.6 km/h 88 % 0 in /  0.0 mm
11:22 68 °F /  20.0 °C 64.4 °F /  18.0 °C 30.2 in /  1022.2 hPa SSW 1 mph /  1.6 km/h 2 mph /  3.2 km/h 88 % 0 in /  0.0 mm
11:32 68.4 °F /  20.2 °C 64.4 °F /  18.0 °C 30.2 in /  1022.2 hPa Calm   2 mph /  3.2 km/h 87 % 0 in /  0.0 mm
11:42 69.4 °F /  20.8 °C 65.1 °F /  18.4 °C 30.2 in /  1022.2 hPa SSW 1 mph /  1.6 km/h 4 mph /  6.4 km/h 86 % 0 in /  0.0 mm
11:47 69.6 °F /  20.9 °C 64.2 °F /  17.9 °C 30.2 in /  1022.2 hPa SW 2 mph /  3.2 km/h 4 mph /  6.4 km/h 83 % 0 in /  0.0 mm
11:52 69.6 °F /  20.9 °C 64.6 °F /  18.1 °C 30.2 in /  1022.2 hPa South 3 mph /  4.8 km/h 5 mph /  8.0 km/h 84 % 0 in /  0.0 mm
11:57 70.3 °F /  21.3 °C 64.9 °F /  18.3 °C 30.2 in /  1022.2 hPa SSW 3 mph /  4.8 km/h 5 mph /  8.0 km/h 83 % 0 in /  0.0 mm
12:02 70.5 °F /  21.4 °C 64.4 °F /  18.0 °C 30.2 in /  1022.2 hPa SSE 2 mph /  3.2 km/h 5 mph /  8.0 km/h 81 % 0 in /  0.0 mm
12:12 71.2 °F /  21.8 °C 65.1 °F /  18.4 °C 30.2 in /  1022.2 hPa SSW 4 mph /  6.4 km/h 6 mph /  9.7 km/h 81 % 0 in /  0.0 mm
12:17 71.1 °F /  21.7 °C 64.2 °F /  17.9 °C 30.2 in /  1022.2 hPa Calm   4 mph /  6.4 km/h 79 % 0 in /  0.0 mm
12:22 71.1 °F /  21.7 °C 64.6 °F /  18.1 °C 30.2 in /  1022.2 hPa Calm   4 mph /  6.4 km/h 80 % 0 in /  0.0 mm
12:32 71.6 °F /  22.0 °C 64.8 °F /  18.2 °C 30.2 in /  1022.2 hPa SSW 4 mph /  6.4 km/h 4 mph /  6.4 km/h 79 % 0 in /  0.0 mm
12:42 71.1 °F /  21.7 °C 64.6 °F /  18.1 °C 30.2 in /  1022.2 hPa Calm   5 mph /  8.0 km/h 80 % 0 in /  0.0 mm
12:52 71.2 °F /  21.8 °C 64.4 °F /  18.0 °C 30.2 in /  1022.2 hPa SSW 5 mph /  8.0 km/h 5 mph /  8.0 km/h 79 % 0 in /  0.0 mm
13:02 71.8 °F /  22.1 °C 64.6 °F /  18.1 °C 30.2 in /  1021.9 hPa WSW 4 mph /  6.4 km/h 5 mph /  8.0 km/h 78 % 0 in /  0.0 mm
13:12 71.8 °F /  22.1 °C 64.9 °F /  18.3 °C 30.2 in /  1021.9 hPa SW 4 mph /  6.4 km/h 5 mph /  8.0 km/h 79 % 0 in /  0.0 mm
13:17 71.8 °F /  22.1 °C 64.9 °F /  18.3 °C 30.2 in /  1021.9 hPa SW 2 mph /  3.2 km/h 5 mph /  8.0 km/h 79 % 0 in /  0.0 mm
13:22 72.7 °F /  22.6 °C 65.1 °F /  18.4 °C 30.2 in /  1021.9 hPa WSW 1 mph /  1.6 km/h 5 mph /  8.0 km/h 77 % 0 in /  0.0 mm
13:27 73.2 °F /  22.9 °C 64.8 °F /  18.2 °C 30.2 in /  1021.9 hPa SW 2 mph /  3.2 km/h 4 mph /  6.4 km/h 75 % 0 in /  0.0 mm
13:32 73.9 °F /  23.3 °C 64.4 °F /  18.0 °C 30.2 in /  1021.9 hPa South 2 mph /  3.2 km/h 5 mph /  8.0 km/h 72 % 0 in /  0.0 mm
13:42 72.9 °F /  22.7 °C 64 °F /  17.8 °C 30.2 in /  1021.9 hPa SSW 3 mph /  4.8 km/h 7 mph /  11.3 km/h 74 % 0 in /  0.0 mm
13:52 73.6 °F /  23.1 °C 64.4 °F /  18.0 °C 30.2 in /  1021.9 hPa Calm   5 mph /  8.0 km/h 73 % 0 in /  0.0 mm
13:57 73.8 °F /  23.2 °C 64.2 °F /  17.9 °C 30.2 in /  1021.6 hPa SW 3 mph /  4.8 km/h 5 mph /  8.0 km/h 72 % 0 in /  0.0 mm
14:02 73.9 °F /  23.3 °C 64.8 °F /  18.2 °C 30.2 in /  1021.6 hPa NW 2 mph /  3.2 km/h 7 mph /  11.3 km/h 73 % 0 in /  0.0 mm
14:07 74.5 °F /  23.6 °C 65.3 °F /  18.5 °C 30.2 in /  1021.6 hPa West 3 mph /  4.8 km/h 7 mph /  11.3 km/h 73 % 0 in /  0.0 mm
14:12 74.5 °F /  23.6 °C 64.9 °F /  18.3 °C 30.2 in /  1021.6 hPa West 3 mph /  4.8 km/h 6 mph /  9.7 km/h 72 % 0 in /  0.0 mm
14:22 73.9 °F /  23.3 °C 64.4 °F /  18.0 °C 30.2 in /  1021.6 hPa WNW 3 mph /  4.8 km/h 7 mph /  11.3 km/h 72 % 0 in /  0.0 mm
14:27 74.3 °F /  23.5 °C 64.8 °F /  18.2 °C 30.2 in /  1021.6 hPa WNW 2 mph /  3.2 km/h 7 mph /  11.3 km/h 72 % 0 in /  0.0 mm
14:32 74.5 °F /  23.6 °C 64 °F /  17.8 °C 30.2 in /  1021.6 hPa SW 4 mph /  6.4 km/h 6 mph /  9.7 km/h 70 % 0 in /  0.0 mm
14:42 73.9 °F /  23.3 °C 64.4 °F /  18.0 °C 30.2 in /  1021.6 hPa WSW 1 mph /  1.6 km/h 6 mph /  9.7 km/h 72 % 0 in /  0.0 mm
14:47 74.1 °F /  23.4 °C 64 °F /  17.8 °C 30.2 in /  1021.9 hPa West 1 mph /  1.6 km/h 6 mph /  9.7 km/h 71 % 0 in /  0.0 mm
14:52 74.5 °F /  23.6 °C 64 °F /  17.8 °C 30.2 in /  1021.6 hPa WSW 5 mph /  8.0 km/h 9 mph /  14.5 km/h 70 % 0 in /  0.0 mm
14:57 74.8 °F /  23.8 °C 64.4 °F /  18.0 °C 30.2 in /  1021.6 hPa SW 2 mph /  3.2 km/h 9 mph /  14.5 km/h 70 % 0 in /  0.0 mm
15:02 74.7 °F /  23.7 °C 63.3 °F /  17.4 °C 30.2 in /  1021.6 hPa WSW 5 mph /  8.0 km/h 9 mph /  14.5 km/h 68 % 0 in /  0.0 mm
15:07 74.5 °F /  23.6 °C 62.8 °F /  17.1 °C 30.2 in /  1021.6 hPa SW 6 mph /  9.7 km/h 8 mph /  12.9 km/h 67 % 0 in /  0.0 mm
15:12 74.8 °F /  23.8 °C 63.1 °F /  17.3 °C 30.2 in /  1021.6 hPa WSW 2 mph /  3.2 km/h 8 mph /  12.9 km/h 67 % 0 in /  0.0 mm
15:17 75.4 °F /  24.1 °C 63.1 °F /  17.3 °C 30.2 in /  1021.6 hPa SW 5 mph /  8.0 km/h 8 mph /  12.9 km/h 66 % 0 in /  0.0 mm
15:22 75.6 °F /  24.2 °C 64.2 °F /  17.9 °C 30.2 in /  1021.6 hPa SSW 5 mph /  8.0 km/h 8 mph /  12.9 km/h 68 % 0 in /  0.0 mm
15:27 76.1 °F /  24.5 °C 63.5 °F /  17.5 °C 30.2 in /  1021.2 hPa West 4 mph /  6.4 km/h 8 mph /  12.9 km/h 65 % 0 in /  0.0 mm
15:32 75.9 °F /  24.4 °C 62.8 °F /  17.1 °C 30.2 in /  1021.2 hPa WSW 4 mph /  6.4 km/h 10 mph /  16.1 km/h 64 % 0 in /  0.0 mm
15:37 76.5 °F /  24.7 °C 62.4 °F /  16.9 °C 30.2 in /  1021.2 hPa West 2 mph /  3.2 km/h 10 mph /  16.1 km/h 62 % 0 in /  0.0 mm
15:42 76.5 °F /  24.7 °C 62.4 °F /  16.9 °C 30.2 in /  1021.2 hPa WSW 7 mph /  11.3 km/h 10 mph /  16.1 km/h 62 % 0 in /  0.0 mm
15:47 76.5 °F /  24.7 °C 62.1 °F /  16.7 °C 30.2 in /  1021.2 hPa SSW 3 mph /  4.8 km/h 8 mph /  12.9 km/h 61 % 0 in /  0.0 mm
15:52 77 °F /  25.0 °C 63.5 °F /  17.5 °C 30.2 in /  1021.2 hPa SW 6 mph /  9.7 km/h 10 mph /  16.1 km/h 63 % 0 in /  0.0 mm
15:57 76.8 °F /  24.9 °C 62.4 °F /  16.9 °C 30.2 in /  1020.9 hPa WSW 2 mph /  3.2 km/h 10 mph /  16.1 km/h 61 % 0 in /  0.0 mm
16:02 77.2 °F /  25.1 °C 62.6 °F /  17.0 °C 30.2 in /  1020.9 hPa SW 3 mph /  4.8 km/h 10 mph /  16.1 km/h 61 % 0 in /  0.0 mm
16:07 76.8 °F /  24.9 °C 61 °F /  16.1 °C 30.2 in /  1020.9 hPa North 3 mph /  4.8 km/h 10 mph /  16.1 km/h 58 % 0 in /  0.0 mm
16:12 76.8 °F /  24.9 °C 61.3 °F /  16.3 °C 30.2 in /  1020.9 hPa West 4 mph /  6.4 km/h 8 mph /  12.9 km/h 59 % 0 in /  0.0 mm
16:17 76.8 °F /  24.9 °C 61 °F /  16.1 °C 30.2 in /  1020.9 hPa WSW 3 mph /  4.8 km/h 8 mph /  12.9 km/h 58 % 0 in /  0.0 mm
16:22 76.6 °F /  24.8 °C 60.3 °F /  15.7 °C 30.2 in /  1020.9 hPa WSW 4 mph /  6.4 km/h 9 mph /  14.5 km/h 57 % 0 in /  0.0 mm
16:32 76.8 °F /  24.9 °C 61 °F /  16.1 °C 30.2 in /  1020.9 hPa SW 4 mph /  6.4 km/h 9 mph /  14.5 km/h 58 % 0 in /  0.0 mm
16:37 76.6 °F /  24.8 °C 60.8 °F /  16.0 °C 30.2 in /  1020.9 hPa SW 5 mph /  8.0 km/h 8 mph /  12.9 km/h 58 % 0 in /  0.0 mm
16:42 76.8 °F /  24.9 °C 61.9 °F /  16.6 °C 30.1 in /  1020.5 hPa SW 6 mph /  9.7 km/h 8 mph /  12.9 km/h 60 % 0 in /  0.0 mm
16:47 77 °F /  25.0 °C 63 °F /  17.2 °C 30.1 in /  1020.5 hPa West 4 mph /  6.4 km/h 8 mph /  12.9 km/h 62 % 0 in /  0.0 mm
16:52 77.2 °F /  25.1 °C 61.7 °F /  16.5 °C 30.2 in /  1020.9 hPa WNW 2 mph /  3.2 km/h 7 mph /  11.3 km/h 59 % 0 in /  0.0 mm
16:57 77 °F /  25.0 °C 61.2 °F /  16.2 °C 30.2 in /  1020.9 hPa WSW 3 mph /  4.8 km/h 10 mph /  16.1 km/h 58 % 0 in /  0.0 mm
17:02 76.6 °F /  24.8 °C 61.7 °F /  16.5 °C 30.2 in /  1020.9 hPa WSW 1 mph /  1.6 km/h 10 mph /  16.1 km/h 60 % 0 in /  0.0 mm
17:12 77.2 °F /  25.1 °C 61.7 °F /  16.5 °C 30.2 in /  1020.9 hPa WSW 4 mph /  6.4 km/h 12 mph /  19.3 km/h 59 % 0 in /  0.0 mm
17:17 77.5 °F /  25.3 °C 60.1 °F /  15.6 °C 30.2 in /  1020.9 hPa WSW 2 mph /  3.2 km/h 8 mph /  12.9 km/h 55 % 0 in /  0.0 mm
17:22 77 °F /  25.0 °C 60.6 °F /  15.9 °C 30.2 in /  1020.9 hPa WNW 3 mph /  4.8 km/h 7 mph /  11.3 km/h 57 % 0 in /  0.0 mm
17:27 77.4 °F /  25.2 °C 61 °F /  16.1 °C 30.2 in /  1020.9 hPa WSW 2 mph /  3.2 km/h 7 mph /  11.3 km/h 57 % 0 in /  0.0 mm
17:32 78.1 °F /  25.6 °C 61.5 °F /  16.4 °C 30.2 in /  1020.9 hPa WNW 5 mph /  8.0 km/h 7 mph /  11.3 km/h 57 % 0 in /  0.0 mm
17:37 77.9 °F /  25.5 °C 61.5 °F /  16.4 °C 30.2 in /  1020.9 hPa West 1 mph /  1.6 km/h 6 mph /  9.7 km/h 57 % 0 in /  0.0 mm
17:42 78.3 °F /  25.7 °C 62.2 °F /  16.8 °C 30.2 in /  1020.9 hPa SW 5 mph /  8.0 km/h 6 mph /  9.7 km/h 58 % 0 in /  0.0 mm
17:47 77.7 °F /  25.4 °C 61.3 °F /  16.3 °C 30.2 in /  1020.9 hPa WSW 2 mph /  3.2 km/h 6 mph /  9.7 km/h 57 % 0 in /  0.0 mm
17:52 77.4 °F /  25.2 °C 61.3 °F /  16.3 °C 30.2 in /  1020.9 hPa SW 3 mph /  4.8 km/h 8 mph /  12.9 km/h 58 % 0 in /  0.0 mm
17:57 77 °F /  25.0 °C 60.6 °F /  15.9 °C 30.2 in /  1020.9 hPa SW 5 mph /  8.0 km/h 8 mph /  12.9 km/h 57 % 0 in /  0.0 mm
18:02 77.5 °F /  25.3 °C 60.6 °F /  15.9 °C 30.1 in /  1020.5 hPa West 3 mph /  4.8 km/h 6 mph /  9.7 km/h 56 % 0 in /  0.0 mm
18:12 78.6 °F /  25.9 °C 61.5 °F /  16.4 °C 30.2 in /  1020.9 hPa WSW 3 mph /  4.8 km/h 6 mph /  9.7 km/h 56 % 0 in /  0.0 mm
18:17 78.3 °F /  25.7 °C 60.3 °F /  15.7 °C 30.2 in /  1020.9 hPa SW 1 mph /  1.6 km/h 6 mph /  9.7 km/h 54 % 0 in /  0.0 mm
18:22 77.9 °F /  25.5 °C 61.5 °F /  16.4 °C 30.1 in /  1020.5 hPa SSW 1 mph /  1.6 km/h 7 mph /  11.3 km/h 57 % 0 in /  0.0 mm
18:27 78.1 °F /  25.6 °C 60.6 °F /  15.9 °C 30.2 in /  1020.9 hPa South 1 mph /  1.6 km/h 7 mph /  11.3 km/h 55 % 0 in /  0.0 mm
18:32 78.6 °F /  25.9 °C 60.6 °F /  15.9 °C 30.2 in /  1020.9 hPa West 1 mph /  1.6 km/h 7 mph /  11.3 km/h 54 % 0 in /  0.0 mm
18:42 78.4 °F /  25.8 °C 60.4 °F /  15.8 °C 30.1 in /  1020.5 hPa SW 2 mph /  3.2 km/h 7 mph /  11.3 km/h 54 % 0 in /  0.0 mm
18:47 78.6 °F /  25.9 °C 62.1 °F /  16.7 °C 30.1 in /  1020.5 hPa WSW 2 mph /  3.2 km/h 7 mph /  11.3 km/h 57 % 0 in /  0.0 mm
18:52 78.3 °F /  25.7 °C 60.8 °F /  16.0 °C 30.2 in /  1020.9 hPa West 2 mph /  3.2 km/h 7 mph /  11.3 km/h 55 % 0 in /  0.0 mm
18:57 78.1 °F /  25.6 °C 61.5 °F /  16.4 °C 30.1 in /  1020.5 hPa SW 1 mph /  1.6 km/h 7 mph /  11.3 km/h 57 % 0 in /  0.0 mm
19:02 78.3 °F /  25.7 °C 62.2 °F /  16.8 °C 30.1 in /  1020.5 hPa SW 1 mph /  1.6 km/h 7 mph /  11.3 km/h 58 % 0 in /  0.0 mm
19:12 78.6 °F /  25.9 °C 61.5 °F /  16.4 °C 30.1 in /  1020.5 hPa West 5 mph /  8.0 km/h 5 mph /  8.0 km/h 56 % 0 in /  0.0 mm
19:17 78.4 °F /  25.8 °C 62.4 °F /  16.9 °C 30.1 in /  1020.5 hPa WSW 4 mph /  6.4 km/h 6 mph /  9.7 km/h 58 % 0 in /  0.0 mm
19:22 77.7 °F /  25.4 °C 61.7 °F /  16.5 °C 30.1 in /  1020.5 hPa WSW 3 mph /  4.8 km/h 6 mph /  9.7 km/h 58 % 0 in /  0.0 mm
19:27 77.5 °F /  25.3 °C 62.1 °F /  16.7 °C 30.1 in /  1020.5 hPa WSW 1 mph /  1.6 km/h 6 mph /  9.7 km/h 59 % 0 in /  0.0 mm
19:32 77.7 °F /  25.4 °C 61.3 °F /  16.3 °C 30.1 in /  1020.5 hPa WNW 1 mph /  1.6 km/h 5 mph /  8.0 km/h 57 % 0 in /  0.0 mm
19:37 77.9 °F /  25.5 °C 61.9 °F /  16.6 °C 30.1 in /  1020.5 hPa WNW 3 mph /  4.8 km/h 4 mph /  6.4 km/h 58 % 0 in /  0.0 mm
19:42 77.5 °F /  25.3 °C 61.5 °F /  16.4 °C 30.1 in /  1020.5 hPa West 2 mph /  3.2 km/h 5 mph /  8.0 km/h 58 % 0 in /  0.0 mm
19:47 77.4 °F /  25.2 °C 61.9 °F /  16.6 °C 30.1 in /  1020.5 hPa WNW 2 mph /  3.2 km/h 5 mph /  8.0 km/h 59 % 0 in /  0.0 mm
19:52 76.8 °F /  24.9 °C 61.9 °F /  16.6 °C 30.1 in /  1020.5 hPa WNW 3 mph /  4.8 km/h 6 mph /  9.7 km/h 60 % 0 in /  0.0 mm
19:57 76.5 °F /  24.7 °C 62.1 °F /  16.7 °C 30.1 in /  1020.5 hPa West 3 mph /  4.8 km/h 6 mph /  9.7 km/h 61 % 0 in /  0.0 mm
20:02 75.9 °F /  24.4 °C 61.9 °F /  16.6 °C 30.2 in /  1020.9 hPa West 3 mph /  4.8 km/h 6 mph /  9.7 km/h 62 % 0 in /  0.0 mm
20:12 75 °F /  23.9 °C 62.4 °F /  16.9 °C 30.1 in /  1020.5 hPa WNW 1 mph /  1.6 km/h 4 mph /  6.4 km/h 65 % 0 in /  0.0 mm
20:17 74.8 °F /  23.8 °C 62.2 °F /  16.8 °C 30.1 in /  1020.5 hPa WNW 1 mph /  1.6 km/h 4 mph /  6.4 km/h 65 % 0 in /  0.0 mm
20:22 74.7 °F /  23.7 °C 62.6 °F /  17.0 °C 30.1 in /  1020.5 hPa WNW 2 mph /  3.2 km/h 3 mph /  4.8 km/h 66 % 0 in /  0.0 mm
20:27 74.5 °F /  23.6 °C 62.4 °F /  16.9 °C 30.1 in /  1020.5 hPa Calm   3 mph /  4.8 km/h 66 % 0 in /  0.0 mm
20:32 74.1 °F /  23.4 °C 62.4 °F /  16.9 °C 30.1 in /  1020.5 hPa WNW 1 mph /  1.6 km/h 2 mph /  3.2 km/h 67 % 0 in /  0.0 mm
20:37 73.8 °F /  23.2 °C 62.6 °F /  17.0 °C 30.1 in /  1020.5 hPa Calm   2 mph /  3.2 km/h 68 % 0 in /  0.0 mm
20:42 73.2 °F /  22.9 °C 62.4 °F /  16.9 °C 30.1 in /  1020.5 hPa WNW 2 mph /  3.2 km/h 3 mph /  4.8 km/h 69 % 0 in /  0.0 mm
20:47 72.9 °F /  22.7 °C 62.1 °F /  16.7 °C 30.2 in /  1020.9 hPa WNW 2 mph /  3.2 km/h 3 mph /  4.8 km/h 69 % 0 in /  0.0 mm
20:52 72.7 °F /  22.6 °C 62.2 °F /  16.8 °C 30.2 in /  1020.9 hPa WNW 2 mph /  3.2 km/h 3 mph /  4.8 km/h 70 % 0 in /  0.0 mm
20:57 72.3 °F /  22.4 °C 62.4 °F /  16.9 °C 30.2 in /  1020.9 hPa WNW 1 mph /  1.6 km/h 3 mph /  4.8 km/h 71 % 0 in /  0.0 mm
21:02 72 °F /  22.2 °C 62.4 °F /  16.9 °C 30.2 in /  1020.9 hPa WNW 1 mph /  1.6 km/h 3 mph /  4.8 km/h 72 % 0 in /  0.0 mm
21:07 71.6 °F /  22.0 °C 62.1 °F /  16.7 °C 30.2 in /  1020.9 hPa WNW 3 mph /  4.8 km/h 4 mph /  6.4 km/h 72 % 0 in /  0.0 mm
21:12 71.4 °F /  21.9 °C 61.2 °F /  16.2 °C 30.2 in /  1021.2 hPa West 2 mph /  3.2 km/h 7 mph /  11.3 km/h 70 % 0 in /  0.0 mm
21:17 71.4 °F /  21.9 °C 60.3 °F /  15.7 °C 30.2 in /  1021.2 hPa NW 2 mph /  3.2 km/h 7 mph /  11.3 km/h 68 % 0 in /  0.0 mm
21:22 71.2 °F /  21.8 °C 59.4 °F /  15.2 °C 30.2 in /  1021.2 hPa Calm   7 mph /  11.3 km/h 66 % 0 in /  0.0 mm
21:27 71.1 °F /  21.7 °C 59.5 °F /  15.3 °C 30.2 in /  1021.2 hPa WNW 3 mph /  4.8 km/h 6 mph /  9.7 km/h 67 % 0 in /  0.0 mm
21:32 70.5 °F /  21.4 °C 59 °F /  15.0 °C 30.2 in /  1021.2 hPa Calm   6 mph /  9.7 km/h 67 % 0 in /  0.0 mm
21:37 70.2 °F /  21.2 °C 59.2 °F /  15.1 °C 30.2 in /  1021.2 hPa West 2 mph /  3.2 km/h 4 mph /  6.4 km/h 68 % 0 in /  0.0 mm
21:42 70 °F /  21.1 °C 59 °F /  15.0 °C 30.2 in /  1021.6 hPa WNW 1 mph /  1.6 km/h 4 mph /  6.4 km/h 68 % 0 in /  0.0 mm
21:47 69.8 °F /  21.0 °C 58.8 °F /  14.9 °C 30.2 in /  1021.6 hPa Calm   3 mph /  4.8 km/h 68 % 0 in /  0.0 mm
21:52 69.8 °F /  21.0 °C 58.3 °F /  14.6 °C 30.2 in /  1021.6 hPa NW 2 mph /  3.2 km/h 3 mph /  4.8 km/h 67 % 0 in /  0.0 mm
21:57 69.8 °F /  21.0 °C 58.3 °F /  14.6 °C 30.2 in /  1021.6 hPa NW 1 mph /  1.6 km/h 3 mph /  4.8 km/h 67 % 0 in /  0.0 mm
22:02 69.4 °F /  20.8 °C 57.9 °F /  14.4 °C 30.2 in /  1021.6 hPa Calm   3 mph /  4.8 km/h 67 % 0 in /  0.0 mm
22:07 69.1 °F /  20.6 °C 58.1 °F /  14.5 °C 30.2 in /  1021.6 hPa Calm   2 mph /  3.2 km/h 68 % 0 in /  0.0 mm
22:12 68.5 °F /  20.3 °C 57.6 °F /  14.2 °C 30.2 in /  1021.6 hPa WNW 3 mph /  4.8 km/h 3 mph /  4.8 km/h 68 % 0 in /  0.0 mm
22:17 68.2 °F /  20.1 °C 57.6 °F /  14.2 °C 30.2 in /  1021.6 hPa WNW 1 mph /  1.6 km/h 3 mph /  4.8 km/h 69 % 0 in /  0.0 mm
22:22 67.6 °F /  19.8 °C 57.9 °F /  14.4 °C 30.2 in /  1021.6 hPa WNW 1 mph /  1.6 km/h 3 mph /  4.8 km/h 71 % 0 in /  0.0 mm
22:27 66.7 °F /  19.3 °C 57.7 °F /  14.3 °C 30.2 in /  1021.6 hPa Calm   3 mph /  4.8 km/h 73 % 0 in /  0.0 mm
22:32 66 °F /  18.9 °C 57.6 °F /  14.2 °C 30.2 in /  1021.6 hPa Calm   2 mph /  3.2 km/h 74 % 0 in /  0.0 mm
22:37 65.5 °F /  18.6 °C 57.7 °F /  14.3 °C 30.2 in /  1021.6 hPa Calm   2 mph /  3.2 km/h 76 % 0 in /  0.0 mm
22:42 65.5 °F /  18.6 °C 58.1 °F /  14.5 °C 30.2 in /  1021.6 hPa Calm   1 mph /  1.6 km/h 77 % 0 in /  0.0 mm
22:47 65.5 °F /  18.6 °C 57.7 °F /  14.3 °C 30.2 in /  1021.6 hPa Calm   1 mph /  1.6 km/h 76 % 0 in /  0.0 mm
22:52 65.5 °F /  18.6 °C 57.4 °F /  14.1 °C 30.2 in /  1021.6 hPa Calm   1 mph /  1.6 km/h 75 % 0 in /  0.0 mm
22:57 65.5 °F /  18.6 °C 57.4 °F /  14.1 °C 30.2 in /  1021.6 hPa Calm   1 mph /  1.6 km/h 75 % 0 in /  0.0 mm
23:02 65.3 °F /  18.5 °C 57.6 °F /  14.2 °C 30.2 in /  1021.6 hPa Calm   1 mph /  1.6 km/h 76 % 0 in /  0.0 mm
23:12 64.8 °F /  18.2 °C 57.4 °F /  14.1 °C 30.2 in /  1021.6 hPa Calm   1 mph /  1.6 km/h 77 % 0 in /  0.0 mm
23:17 64.6 °F /  18.1 °C 56.8 °F /  13.8 °C 30.2 in /  1021.6 hPa Calm     76 % 0 in /  0.0 mm
23:22 64.8 °F /  18.2 °C 57 °F /  13.9 °C 30.2 in /  1021.6 hPa Calm   1 mph /  1.6 km/h 76 % 0 in /  0.0 mm
23:32 64.8 °F /  18.2 °C 56.3 °F /  13.5 °C 30.2 in /  1021.6 hPa Calm   1 mph /  1.6 km/h 74 % 0 in /  0.0 mm
23:37 64.8 °F /  18.2 °C 55.9 °F /  13.3 °C 30.2 in /  1021.6 hPa Calm   1 mph /  1.6 km/h 73 % 0 in /  0.0 mm
23:42 64.8 °F /  18.2 °C 55.9 °F /  13.3 °C 30.2 in /  1021.6 hPa Calm   1 mph /  1.6 km/h 73 % 0 in /  0.0 mm
23:52 64.8 °F /  18.2 °C 56.3 °F /  13.5 °C 30.2 in /  1021.6 hPa Calm     74 % 0 in /  0.0 mm
23:57 64.4 °F /  18.0 °C 57 °F /  13.9 °C 30.2 in /  1021.6 hPa Calm     77 % 0 in /  0.0 mm
Meteo18
Compliments of Weather Underground - 4 mb

Script developed by  Jim McMurry - jmcmurry@mwt.net Adapted for the template by  Wim van der Kuil - Leuven-Template.eu

You find our weather info also at:

European Weather Network

Weather Underground

Equipment we use:

Weather-station
Davis Vue

Weather-program
Meteohub

Weather-server
Raspberry PI 2 B+

Provider
1 and 1

Davis Vue

Meteohub

Raspberry PI 2 B+

1 and 1